createdAt,value
2023-04-13T00:02:27.864Z,5.85
2023-04-13T00:05:14.800Z,5.89
2023-04-13T00:08:03.445Z,5.78
2023-04-13T00:10:51.025Z,5.78
2023-04-13T00:13:41.258Z,5.86
2023-04-13T00:16:29.655Z,5.86
2023-04-13T00:19:17.699Z,5.67
2023-04-13T00:22:04.367Z,5.92
2023-04-13T00:24:54.377Z,5.51
2023-04-13T00:27:44.722Z,5.35
2023-04-13T00:30:31.402Z,5.41
2023-04-13T00:33:17.965Z,5.22
2023-04-13T00:36:04.713Z,5.27
2023-04-13T00:38:54.429Z,5.20
2023-04-13T00:41:40.914Z,5.21
2023-04-13T00:44:28.473Z,5.21
2023-04-13T00:47:17.599Z,5.06
2023-04-13T00:50:06.304Z,4.93
2023-04-13T00:52:53.364Z,5.01
2023-04-13T00:55:42.284Z,5.01
2023-04-13T00:58:28.741Z,4.87
2023-04-13T01:01:15.182Z,4.84
2023-04-13T01:04:01.990Z,5.16
2023-04-13T01:07:00.974Z,4.83
2023-04-13T01:10:00.671Z,5.00
2023-04-13T01:13:07.167Z,4.91
2023-04-13T01:16:12.677Z,4.40
2023-04-13T01:19:01.359Z,4.43
2023-04-13T01:21:54.737Z,5.04
2023-04-13T01:25:12.862Z,4.67
2023-04-13T01:28:02.915Z,4.36
2023-04-13T01:30:53.230Z,4.79
2023-04-13T01:33:42.110Z,5.20
2023-04-13T01:36:29.675Z,4.92
2023-04-13T01:39:31.802Z,4.98
2023-04-13T01:42:24.293Z,4.65
2023-04-13T01:45:17.726Z,4.77
2023-04-13T01:48:20.137Z,4.75
2023-04-13T01:51:32.215Z,4.55
2023-04-13T01:54:25.655Z,4.44
2023-04-13T01:57:15.884Z,4.23
2023-04-13T02:00:14.174Z,4.28
2023-04-13T02:03:04.976Z,4.36
2023-04-13T02:05:52.014Z,4.37
2023-04-13T02:08:38.301Z,4.30
2023-04-13T02:11:25.453Z,3.83
2023-04-13T02:14:13.515Z,4.13
2023-04-13T02:17:00.568Z,4.28
2023-04-13T02:19:46.983Z,4.07
2023-04-13T02:22:34.462Z,4.65
2023-04-13T02:25:20.707Z,4.39
2023-04-13T02:28:08.958Z,4.15
2023-04-13T02:30:56.169Z,4.56
2023-04-13T02:33:44.640Z,4.40
2023-04-13T02:36:30.862Z,4.33
2023-04-13T02:39:22.209Z,3.96
2023-04-13T02:42:10.330Z,3.81
2023-04-13T02:44:56.859Z,3.88
2023-04-13T02:47:45.001Z,4.00
2023-04-13T02:50:31.491Z,3.82
2023-04-13T02:53:25.235Z,3.57
2023-04-13T02:56:16.791Z,3.82
2023-04-13T02:59:09.181Z,3.80
2023-04-13T03:01:58.884Z,3.70
2023-04-13T03:04:47.525Z,3.64
2023-04-13T03:07:36.371Z,3.51
2023-04-13T03:10:23.159Z,3.53
2023-04-13T03:13:10.603Z,3.55
2023-04-13T03:15:57.942Z,3.26
2023-04-13T03:18:46.172Z,3.20
2023-04-13T03:21:34.371Z,3.05
2023-04-13T03:24:35.130Z,3.42
2023-04-13T03:27:26.120Z,3.24
2023-04-13T03:30:14.513Z,3.49
2023-04-13T03:33:10.235Z,3.37
2023-04-13T03:35:58.492Z,3.50
2023-04-13T03:38:51.290Z,3.57
2023-04-13T03:41:37.947Z,4.29
2023-04-13T03:44:24.311Z,4.26
2023-04-13T03:47:11.368Z,4.32
2023-04-13T03:49:57.772Z,4.27
2023-04-13T03:52:44.699Z,4.52
2023-04-13T03:55:31.508Z,4.55
2023-04-13T03:58:23.893Z,4.57
2023-04-13T04:01:11.311Z,4.62
2023-04-13T04:04:05.936Z,4.51
2023-04-13T04:06:52.478Z,4.53
2023-04-13T04:09:39.378Z,4.69
2023-04-13T04:12:26.180Z,4.56
2023-04-13T04:15:12.504Z,4.93
2023-04-13T04:18:01.413Z,4.98
2023-04-13T04:20:48.574Z,4.87
2023-04-13T04:23:37.965Z,4.72
2023-04-13T04:26:26.111Z,4.94
2023-04-13T04:29:34.241Z,5.04
2023-04-13T04:32:25.497Z,4.87
2023-04-13T04:35:14.375Z,4.90
2023-04-13T04:38:08.257Z,5.00
2023-04-13T04:40:57.453Z,5.19
2023-04-13T04:43:46.042Z,5.07
2023-04-13T04:46:33.581Z,5.27
2023-04-13T04:49:25.437Z,5.37
2023-04-13T04:52:12.687Z,5.41
2023-04-13T04:55:00.528Z,5.47
2023-04-13T04:57:49.767Z,5.29
2023-04-13T05:00:38.120Z,5.44
2023-04-13T05:03:30.298Z,5.49
2023-04-13T05:06:27.674Z,5.33
2023-04-13T05:09:15.030Z,5.68
2023-04-13T05:12:07.473Z,5.73
2023-04-13T05:14:55.727Z,5.66
2023-04-13T05:17:46.665Z,5.87
2023-04-13T05:20:34.717Z,5.63
2023-04-13T05:23:25.106Z,5.90
2023-04-13T05:26:20.385Z,5.94
2023-04-13T05:29:08.062Z,5.91
2023-04-13T05:32:01.734Z,5.91
2023-04-13T05:34:50.231Z,5.95
2023-04-13T05:37:40.831Z,6.09
2023-04-13T05:40:35.050Z,6.08
2023-04-13T05:43:24.066Z,6.11
2023-04-13T05:46:12.314Z,6.27
2023-04-13T05:48:59.838Z,6.44
2023-04-13T05:51:47.674Z,6.39
2023-04-13T05:54:34.515Z,6.64
2023-04-13T05:57:22.147Z,6.59
2023-04-13T06:00:11.688Z,6.73
2023-04-13T06:03:08.746Z,6.94
2023-04-13T06:05:56.303Z,6.80
2023-04-13T06:08:44.026Z,7.05
2023-04-13T06:11:31.283Z,7.04
2023-04-13T06:14:19.124Z,7.39
2023-04-13T06:17:05.696Z,7.58
2023-04-13T06:19:53.260Z,7.72
2023-04-13T06:22:39.825Z,7.79
2023-04-13T06:25:27.135Z,7.78
2023-04-13T06:28:13.853Z,7.71
2023-04-13T06:31:02.701Z,7.81
2023-04-13T06:33:50.430Z,8.18
2023-04-13T06:36:42.921Z,8.42
2023-04-13T06:39:33.022Z,8.21
2023-04-13T06:42:19.824Z,8.55
2023-04-13T06:45:18.006Z,8.71
2023-04-13T06:48:05.818Z,8.85
2023-04-13T06:50:58.981Z,8.85
2023-04-13T06:53:47.170Z,8.55
2023-04-13T06:56:33.970Z,8.65
2023-04-13T06:59:20.370Z,8.90
2023-04-13T07:02:07.030Z,8.85
2023-04-13T07:04:54.122Z,8.86
2023-04-13T07:07:42.985Z,9.08
2023-04-13T07:10:29.495Z,9.16
2023-04-13T07:13:21.131Z,9.06
2023-04-13T07:16:08.833Z,9.43
2023-04-13T07:19:00.911Z,9.57
2023-04-13T07:21:48.009Z,9.54
2023-04-13T07:24:35.801Z,9.93
2023-04-13T07:27:27.624Z,9.95
2023-04-13T07:30:16.769Z,10.06
2023-04-13T07:33:05.911Z,9.82
2023-04-13T07:35:55.730Z,9.90
2023-04-13T07:38:47.146Z,10.01
2023-04-13T07:41:39.044Z,10.11
2023-04-13T07:44:32.704Z,10.24
2023-04-13T07:47:19.639Z,10.11
2023-04-13T07:50:08.179Z,10.08
2023-04-13T07:52:55.576Z,10.32
2023-04-13T07:55:44.024Z,10.31
2023-04-13T07:58:33.342Z,10.32
2023-04-13T08:01:21.415Z,10.48
2023-04-13T08:04:08.950Z,10.30
2023-04-13T08:06:57.189Z,10.29
2023-04-13T08:09:43.924Z,10.16
2023-04-13T08:12:31.305Z,10.04
2023-04-13T08:15:17.876Z,10.39
2023-04-13T08:18:04.559Z,10.60
2023-04-13T08:20:52.771Z,10.74
2023-04-13T08:23:41.628Z,11.07
2023-04-13T08:26:28.818Z,11.12
2023-04-13T08:29:19.180Z,11.05
2023-04-13T08:32:06.654Z,11.31
2023-04-13T08:34:55.743Z,11.31
2023-04-13T08:37:42.565Z,11.07
2023-04-13T08:40:30.672Z,11.06
2023-04-13T08:43:20.109Z,11.06
2023-04-13T08:46:08.962Z,10.83
2023-04-13T08:48:59.164Z,11.12
2023-04-13T08:51:59.851Z,11.31
2023-04-13T08:54:46.821Z,11.43
2023-04-13T08:57:39.335Z,11.17
2023-04-13T09:00:26.303Z,11.13
2023-04-13T09:03:16.163Z,10.99
2023-04-13T09:06:11.570Z,10.78
2023-04-13T09:08:59.538Z,10.80
2023-04-13T09:11:48.483Z,10.44
2023-04-13T09:14:38.292Z,10.19
2023-04-13T09:17:26.869Z,9.91
2023-04-13T09:20:22.989Z,10.12
2023-04-13T09:23:17.813Z,9.97
2023-04-13T09:26:05.361Z,9.92
2023-04-13T09:28:56.115Z,10.28
2023-04-13T09:31:45.512Z,10.41
2023-04-13T09:34:33.261Z,10.73
2023-04-13T09:37:19.599Z,10.86
2023-04-13T09:40:18.660Z,11.08
2023-04-13T09:43:07.808Z,11.18
2023-04-13T09:45:54.296Z,11.18
2023-04-13T09:48:41.295Z,11.20
2023-04-13T09:51:39.832Z,11.59
2023-04-13T09:54:26.219Z,11.24
2023-04-13T09:57:23.237Z,11.23
2023-04-13T10:00:30.615Z,10.84
2023-04-13T10:03:19.077Z,10.81
2023-04-13T10:06:07.832Z,10.69
2023-04-13T10:08:54.144Z,10.79
2023-04-13T10:11:49.536Z,10.54
2023-04-13T10:14:39.271Z,10.37
2023-04-13T10:17:50.652Z,10.43
2023-04-13T10:20:37.370Z,10.59
2023-04-13T10:23:24.889Z,10.97
2023-04-13T10:26:11.713Z,11.39
2023-04-13T10:29:00.072Z,11.25
2023-04-13T10:31:48.709Z,11.62
2023-04-13T10:34:39.573Z,11.56
2023-04-13T10:37:28.672Z,11.33
2023-04-13T10:40:16.304Z,11.04
2023-04-13T10:43:03.061Z,10.56
2023-04-13T10:45:49.346Z,10.54
2023-04-13T10:48:36.475Z,10.68
2023-04-13T10:51:26.238Z,10.79
2023-04-13T10:54:14.268Z,10.73
2023-04-13T10:57:03.485Z,10.52
2023-04-13T10:59:59.380Z,10.76
2023-04-13T11:02:46.681Z,10.35
2023-04-13T11:05:33.392Z,10.24
2023-04-13T11:08:20.838Z,10.49
2023-04-13T11:11:07.964Z,10.80
2023-04-13T11:13:54.368Z,11.29
2023-04-13T11:16:45.069Z,11.76
2023-04-13T11:19:31.886Z,12.06
2023-04-13T11:22:23.868Z,12.28
2023-04-13T11:25:10.580Z,12.74
2023-04-13T11:27:59.412Z,12.70
2023-04-13T11:30:58.219Z,12.74
2023-04-13T11:33:48.981Z,12.46
2023-04-13T11:36:35.696Z,12.44
2023-04-13T11:39:23.148Z,12.66
2023-04-13T11:42:10.158Z,12.63
2023-04-13T11:44:56.656Z,12.97
2023-04-13T11:47:46.531Z,13.06
2023-04-13T11:50:33.371Z,13.45
2023-04-13T11:53:20.363Z,13.45
2023-04-13T11:56:07.687Z,13.07
2023-04-13T11:58:54.363Z,12.55
2023-04-13T12:01:50.206Z,12.18
2023-04-13T12:04:41.045Z,12.07
2023-04-13T12:07:28.887Z,12.00
2023-04-13T12:10:24.720Z,11.73
2023-04-13T12:16:08.502Z,11.54
2023-04-13T12:18:57.493Z,11.48
2023-04-13T12:21:53.281Z,11.49
2023-04-13T12:24:40.112Z,11.42
2023-04-13T12:27:26.696Z,11.41
2023-04-13T12:30:14.175Z,11.74
2023-04-13T12:33:00.789Z,11.66
2023-04-13T12:35:47.444Z,11.85
2023-04-13T12:38:34.569Z,11.97
2023-04-13T12:41:21.677Z,11.90
2023-04-13T12:44:08.961Z,11.85
2023-04-13T12:46:55.079Z,12.28
2023-04-13T12:49:41.511Z,12.97
2023-04-13T12:52:29.440Z,12.98
2023-04-13T12:55:15.844Z,12.68
2023-04-13T12:58:02.028Z,12.63
2023-04-13T13:00:48.920Z,12.68
2023-04-13T13:03:37.060Z,12.98
2023-04-13T13:06:23.520Z,13.22
2023-04-13T13:09:10.353Z,13.56
2023-04-13T13:11:56.807Z,13.71
2023-04-13T13:14:43.403Z,13.51
2023-04-13T13:17:29.811Z,13.24
2023-04-13T13:20:17.180Z,13.66
2023-04-13T13:23:03.680Z,13.85
2023-04-13T13:26:10.508Z,14.10
2023-04-13T13:28:57.042Z,14.17
2023-04-13T13:31:43.788Z,13.79
2023-04-13T13:34:30.188Z,14.02
2023-04-13T13:37:16.702Z,13.89
2023-04-13T13:40:13.096Z,14.26
2023-04-13T13:42:59.670Z,14.11
2023-04-13T13:45:46.034Z,14.14
2023-04-13T13:48:33.331Z,14.19
2023-04-13T13:51:32.466Z,13.95
2023-04-13T13:54:20.477Z,14.12
2023-04-13T13:57:06.909Z,13.71
2023-04-13T13:59:53.133Z,13.15
2023-04-13T14:02:39.756Z,13.15
2023-04-13T14:05:27.276Z,12.87
2023-04-13T14:08:14.052Z,12.52
2023-04-13T14:11:00.958Z,12.69
2023-04-13T14:13:49.201Z,12.91
2023-04-13T14:16:35.709Z,12.97
2023-04-13T14:19:22.061Z,13.23
2023-04-13T14:22:08.479Z,12.97
2023-04-13T14:24:55.459Z,13.00
2023-04-13T14:27:41.736Z,13.11
2023-04-13T14:30:28.569Z,12.80
2023-04-13T14:33:16.254Z,12.85
2023-04-13T14:36:02.831Z,12.74
2023-04-13T14:38:51.502Z,12.82
2023-04-13T14:41:37.951Z,12.62
2023-04-13T14:44:24.201Z,12.61
2023-04-13T14:47:12.238Z,12.18
2023-04-13T14:49:59.580Z,12.23
2023-04-13T14:52:46.621Z,12.31
2023-04-13T14:55:34.099Z,12.32
2023-04-13T14:58:20.556Z,12.13
2023-04-13T15:01:19.985Z,12.27
2023-04-13T15:04:06.725Z,12.15
2023-04-13T15:06:56.683Z,12.28
2023-04-13T15:09:43.404Z,12.25
2023-04-13T15:12:29.948Z,12.22
2023-04-13T15:15:16.322Z,12.42
2023-04-13T15:18:04.306Z,12.52
2023-04-13T15:20:50.696Z,12.22
2023-04-13T15:23:37.205Z,12.71
2023-04-13T15:26:24.033Z,12.77
2023-04-13T15:29:10.575Z,13.18
2023-04-13T15:31:58.198Z,13.38
2023-04-13T15:34:44.783Z,13.26
2023-04-13T15:37:31.431Z,13.83
2023-04-13T15:40:22.598Z,14.06
2023-04-13T15:43:08.795Z,14.03
2023-04-13T15:45:55.271Z,13.67
2023-04-13T15:48:41.966Z,13.73
2023-04-13T15:51:28.587Z,13.27
2023-04-13T15:54:14.796Z,12.85
2023-04-13T15:57:02.406Z,12.71
2023-04-13T15:59:48.785Z,12.80
2023-04-13T16:02:36.381Z,12.84
2023-04-13T16:05:23.039Z,12.53
2023-04-13T16:08:09.262Z,12.74
2023-04-13T16:10:55.671Z,12.84
2023-04-13T16:13:49.369Z,12.57
2023-04-13T16:16:44.278Z,11.06
2023-04-13T16:19:32.667Z,10.58
2023-04-13T16:22:19.310Z,10.29
2023-04-13T16:25:06.713Z,10.10
2023-04-13T16:27:54.916Z,9.44
2023-04-13T16:30:42.320Z,9.12
2023-04-13T16:33:29.848Z,9.39
2023-04-13T16:36:16.407Z,8.99
2023-04-13T16:39:11.534Z,9.23
2023-04-13T16:41:59.201Z,8.99
2023-04-13T16:44:45.870Z,8.87
2023-04-13T16:47:32.837Z,8.75
2023-04-13T16:50:20.016Z,8.86
2023-04-13T16:53:06.616Z,8.80
2023-04-13T16:55:53.257Z,8.86
2023-04-13T16:58:39.386Z,8.72
2023-04-13T17:01:26.419Z,8.65
2023-04-13T17:04:13.029Z,8.59
2023-04-13T17:07:03.584Z,8.64
2023-04-13T17:09:50.210Z,8.41
2023-04-13T17:12:36.688Z,8.49
2023-04-13T17:15:23.230Z,8.83
2023-04-13T17:18:09.471Z,8.81
2023-04-13T17:20:56.377Z,9.01
2023-04-13T17:23:43.848Z,8.88
2023-04-13T17:26:30.157Z,9.04
2023-04-13T17:29:17.633Z,9.09
2023-04-13T17:32:05.412Z,9.06
2023-04-13T17:34:51.659Z,8.87
2023-04-13T17:37:38.285Z,8.91
2023-04-13T17:40:25.195Z,8.71
2023-04-13T17:43:12.228Z,8.83
2023-04-13T17:45:58.684Z,8.77
2023-04-13T17:48:45.289Z,8.66
2023-04-13T17:51:31.727Z,8.54
2023-04-13T17:54:18.304Z,8.35
2023-04-13T17:57:06.960Z,8.18
2023-04-13T18:04:26.741Z,7.93
2023-04-13T18:07:14.197Z,7.59
2023-04-13T18:10:00.619Z,7.71
2023-04-13T18:12:46.968Z,7.22
2023-04-13T18:15:33.135Z,7.33
2023-04-13T18:18:24.396Z,7.31
2023-04-13T18:21:11.645Z,7.28
2023-04-13T18:24:01.126Z,7.21
2023-04-13T18:26:48.470Z,7.01
2023-04-13T18:29:34.786Z,6.91
2023-04-13T18:32:21.709Z,6.75
2023-04-13T18:35:08.790Z,6.66
2023-04-13T18:37:55.988Z,6.56
2023-04-13T18:40:42.386Z,6.25
2023-04-13T18:43:28.813Z,6.19
2023-04-13T18:46:15.477Z,5.91
2023-04-13T18:49:01.896Z,6.03
2023-04-13T18:51:48.130Z,6.33
2023-04-13T18:54:34.707Z,6.52
2023-04-13T18:57:21.268Z,6.32
2023-04-13T19:00:11.462Z,6.59
2023-04-13T19:02:58.374Z,6.47
2023-04-13T19:05:44.917Z,6.58
2023-04-13T19:08:31.381Z,6.55
2023-04-13T19:11:18.665Z,6.29
2023-04-13T19:14:07.588Z,6.32
2023-04-13T19:16:54.623Z,6.45
2023-04-13T19:19:41.173Z,6.61
2023-04-13T19:22:27.760Z,6.40
2023-04-13T19:25:15.150Z,6.32
2023-04-13T19:28:02.022Z,6.42
2023-04-13T19:30:48.507Z,6.35
2023-04-13T19:33:35.476Z,6.20
2023-04-13T19:36:22.749Z,5.99
2023-04-13T19:39:10.868Z,5.87
2023-04-13T19:41:56.952Z,5.91
2023-04-13T19:44:43.476Z,5.72
2023-04-13T19:47:29.998Z,5.37
2023-04-13T19:50:16.606Z,5.22
2023-04-13T19:53:03.133Z,5.14
2023-04-13T19:55:50.949Z,5.35
2023-04-13T19:58:37.261Z,5.41
2023-04-13T20:01:23.794Z,5.09
2023-04-13T20:04:10.197Z,5.16
2023-04-13T20:06:56.739Z,5.28
2023-04-13T20:09:43.248Z,5.18
2023-04-13T20:12:29.785Z,5.03
2023-04-13T20:15:16.331Z,4.64
2023-04-13T20:18:07.227Z,4.40
2023-04-13T20:20:53.993Z,4.47
2023-04-13T20:23:40.520Z,4.34
2023-04-13T20:26:29.601Z,4.45
2023-04-13T20:29:21.737Z,4.45
2023-04-13T20:32:08.386Z,4.72
2023-04-13T20:34:55.413Z,4.62
2023-04-13T20:37:42.231Z,4.57
2023-04-13T20:40:28.857Z,4.92
2023-04-13T20:43:16.004Z,4.97
2023-04-13T20:46:02.236Z,4.81
2023-04-13T20:48:51.257Z,4.89
2023-04-13T20:51:37.643Z,5.00
2023-04-13T20:54:24.690Z,4.95
2023-04-13T20:57:12.045Z,5.15
2023-04-13T20:59:58.513Z,5.06
2023-04-13T21:02:46.967Z,4.98
2023-04-13T21:05:33.787Z,5.11
2023-04-13T21:08:20.939Z,5.00
2023-04-13T21:11:07.635Z,4.87
2023-04-13T21:13:57.249Z,5.30
2023-04-13T21:16:43.826Z,5.41
2023-04-13T21:19:30.383Z,5.32
2023-04-13T21:22:18.779Z,5.33
2023-04-13T21:25:05.420Z,5.45
2023-04-13T21:27:51.845Z,5.54
2023-04-13T21:30:38.426Z,5.41
2023-04-13T21:33:24.670Z,5.47
2023-04-13T21:39:01.148Z,5.37
2023-04-13T21:41:47.492Z,5.30
2023-04-13T21:44:34.112Z,5.16
2023-04-13T21:47:20.641Z,5.14
2023-04-13T21:50:07.549Z,5.52
2023-04-13T21:52:54.155Z,5.44
2023-04-13T21:55:40.619Z,5.30
2023-04-13T21:58:26.780Z,5.29
2023-04-13T22:01:14.288Z,5.56
2023-04-13T22:04:00.808Z,5.72
2023-04-13T22:06:47.161Z,5.42
2023-04-13T22:09:33.451Z,5.55
2023-04-13T22:12:19.797Z,5.81
2023-04-13T22:15:07.318Z,5.87
2023-04-13T22:17:53.550Z,5.80
2023-04-13T22:20:39.863Z,5.58
2023-04-13T22:23:26.599Z,5.41
2023-04-13T22:26:13.274Z,4.91
2023-04-13T22:28:59.850Z,5.09
2023-04-13T22:31:46.400Z,5.39
2023-04-13T22:34:34.496Z,5.30
2023-04-13T22:37:20.852Z,5.52
2023-04-13T22:40:07.581Z,5.62
2023-04-13T22:42:54.105Z,5.71
2023-04-13T22:45:40.697Z,5.66
2023-04-13T22:48:28.725Z,5.74
2023-04-13T22:51:15.125Z,5.53
2023-04-13T22:54:01.393Z,5.65
2023-04-13T22:56:48.006Z,5.58
2023-04-13T22:59:34.240Z,5.68
2023-04-13T23:02:21.055Z,5.37
2023-04-13T23:05:08.233Z,5.41
2023-04-13T23:07:54.807Z,5.41
2023-04-13T23:10:41.091Z,5.56
2023-04-13T23:13:27.201Z,5.29
2023-04-13T23:16:13.756Z,5.18
2023-04-13T23:19:00.547Z,4.96
2023-04-13T23:21:47.397Z,4.75
2023-04-13T23:24:33.607Z,4.88
2023-04-13T23:27:20.382Z,4.92
2023-04-13T23:30:07.133Z,4.94
2023-04-13T23:32:53.630Z,4.93
2023-04-13T23:35:40.545Z,5.15
2023-04-13T23:38:28.036Z,4.94
2023-04-13T23:41:14.219Z,4.86
2023-04-13T23:44:00.419Z,5.09
2023-04-13T23:46:47.245Z,4.90
2023-04-13T23:49:33.858Z,5.22
2023-04-13T23:52:20.090Z,5.23
2023-04-13T23:55:06.753Z,5.03
2023-04-13T23:57:53.192Z,5.24
